createdAt,value
2023-03-21T00:01:54.514Z,99099.53
2023-03-21T00:04:28.436Z,99096.06
2023-03-21T00:06:58.120Z,99097.19
2023-03-21T00:09:24.914Z,99087.69
2023-03-21T00:11:51.737Z,99086.97
2023-03-21T00:14:23.696Z,99074.09
2023-03-21T00:16:51.525Z,99070.72
2023-03-21T00:19:21.049Z,99072.00
2023-03-21T00:22:05.893Z,99065.84
2023-03-21T00:24:34.155Z,99061.53
2023-03-21T00:27:21.933Z,99055.38
2023-03-21T00:29:51.761Z,99050.84
2023-03-21T00:32:19.914Z,99043.88
2023-03-21T00:35:01.462Z,99040.47
2023-03-21T00:37:29.291Z,99037.81
2023-03-21T00:39:56.358Z,99027.81
2023-03-21T00:42:23.259Z,99027.69
2023-03-21T00:44:50.004Z,99025.97
2023-03-21T00:47:16.994Z,99015.59
2023-03-21T00:49:43.798Z,99011.78
2023-03-21T00:52:27.555Z,98995.38
2023-03-21T00:54:58.188Z,98995.84
2023-03-21T00:57:38.169Z,98992.28
2023-03-21T01:00:09.771Z,98985.63
2023-03-21T01:02:38.081Z,98989.88
2023-03-21T01:05:05.483Z,98980.81
2023-03-21T01:07:32.440Z,98982.19
2023-03-21T01:09:59.269Z,98979.06
2023-03-21T01:12:26.141Z,98973.31
2023-03-21T01:14:52.881Z,98962.41
2023-03-21T01:17:19.705Z,98956.84
2023-03-21T01:19:52.115Z,98954.19
2023-03-21T01:22:20.070Z,98943.16
2023-03-21T01:24:55.161Z,98937.25
2023-03-21T01:27:25.589Z,98942.75
2023-03-21T01:29:52.466Z,98935.78
2023-03-21T01:32:19.378Z,98935.41
2023-03-21T01:34:46.249Z,98920.34
2023-03-21T01:37:13.238Z,98919.66
2023-03-21T01:39:46.634Z,98909.03
2023-03-21T01:42:14.033Z,98910.81
2023-03-21T01:45:03.343Z,98902.81
2023-03-21T01:47:45.022Z,98899.88
2023-03-21T01:50:39.166Z,98897.69
2023-03-21T01:53:21.603Z,98892.09
2023-03-21T01:55:49.920Z,98890.00
2023-03-21T01:58:35.011Z,98884.09
2023-03-21T02:01:25.476Z,98877.19
2023-03-21T02:03:56.562Z,98865.91
2023-03-21T02:06:50.674Z,98865.66
2023-03-21T02:09:47.810Z,98860.56
2023-03-21T02:12:21.024Z,98872.66
2023-03-21T02:14:49.853Z,98863.31
2023-03-21T02:17:56.394Z,98858.88
2023-03-21T02:20:51.229Z,98846.47
2023-03-21T02:23:23.404Z,98840.47
2023-03-21T02:26:36.124Z,98841.34
2023-03-21T02:29:18.355Z,98835.81
2023-03-21T02:31:51.840Z,98834.34
2023-03-21T02:34:37.681Z,98830.59
2023-03-21T02:37:11.486Z,98820.63
2023-03-21T02:40:08.104Z,98810.66
2023-03-21T02:42:59.972Z,98809.53
2023-03-21T02:46:05.151Z,98801.00
2023-03-21T02:48:49.733Z,98800.25
2023-03-21T02:51:21.804Z,98797.28
2023-03-21T02:53:55.000Z,98786.47
2023-03-21T02:56:37.024Z,98791.13
2023-03-21T02:59:05.615Z,98777.47
2023-03-21T03:01:34.206Z,98777.72
2023-03-21T03:04:01.593Z,98778.28
2023-03-21T03:06:44.410Z,98770.16
2023-03-21T03:09:56.282Z,98765.84
2023-03-21T03:12:45.101Z,98754.75
2023-03-21T03:15:23.882Z,98746.69
2023-03-21T03:18:12.502Z,98743.25
2023-03-21T03:20:50.880Z,98738.88
2023-03-21T03:23:30.610Z,98739.50
2023-03-21T03:26:03.394Z,98742.53
2023-03-21T03:28:35.746Z,98739.41
2023-03-21T03:31:10.235Z,98727.25
2023-03-21T03:33:45.042Z,98738.88
2023-03-21T03:36:30.532Z,98734.97
2023-03-21T03:39:04.736Z,98733.34
2023-03-21T03:41:57.727Z,98733.84
2023-03-21T03:44:21.491Z,98723.91
2023-03-21T03:47:04.525Z,98716.19
2023-03-21T03:49:43.611Z,98719.16
2023-03-21T03:52:20.959Z,98713.50
2023-03-21T03:55:00.621Z,98716.56
2023-03-21T03:57:31.643Z,98712.50
2023-03-21T03:59:58.517Z,98709.03
2023-03-21T04:02:44.116Z,98703.28
2023-03-21T04:05:13.110Z,98694.91
2023-03-21T04:07:39.958Z,98692.72
2023-03-21T04:10:07.185Z,98687.78
2023-03-21T04:12:40.610Z,98686.34
2023-03-21T04:15:32.038Z,98687.41
2023-03-21T04:18:05.984Z,98672.34
2023-03-21T04:20:37.208Z,98669.97
2023-03-21T04:23:10.196Z,98667.03
2023-03-21T04:25:47.659Z,98659.94
2023-03-21T04:28:22.181Z,98659.63
2023-03-21T04:31:15.978Z,98653.59
2023-03-21T04:33:52.379Z,98647.44
2023-03-21T04:36:26.491Z,98649.31
2023-03-21T04:39:01.607Z,98643.75
2023-03-21T04:41:29.676Z,98640.81
2023-03-21T04:43:57.186Z,98640.00
2023-03-21T04:46:24.359Z,98634.91
2023-03-21T04:48:51.357Z,98635.16
2023-03-21T04:51:18.230Z,98634.09
2023-03-21T04:53:46.969Z,98625.25
2023-03-21T04:56:14.340Z,98614.59
2023-03-21T04:58:42.089Z,98619.38
2023-03-21T05:01:09.204Z,98616.22
2023-03-21T05:03:40.151Z,98616.53
2023-03-21T05:06:08.629Z,98604.81
2023-03-21T05:08:36.569Z,98603.78
2023-03-21T05:11:04.773Z,98600.06
2023-03-21T05:13:31.715Z,98599.16
2023-03-21T05:15:58.501Z,98586.63
2023-03-21T05:18:25.382Z,98575.09
2023-03-21T05:21:08.005Z,98577.72
2023-03-21T05:23:38.371Z,98583.19
2023-03-21T05:26:07.404Z,98571.38
2023-03-21T05:28:41.243Z,98564.13
2023-03-21T05:31:09.049Z,98562.22
2023-03-21T05:33:36.052Z,98562.03
2023-03-21T05:36:02.942Z,98556.38
2023-03-21T05:38:32.151Z,98557.97
2023-03-21T05:40:59.552Z,98557.97
2023-03-21T05:43:26.855Z,98553.38
2023-03-21T05:45:53.771Z,98551.47
2023-03-21T05:48:21.172Z,98550.19
2023-03-21T05:51:05.445Z,98543.81
2023-03-21T05:53:32.282Z,98549.69
2023-03-21T05:55:59.182Z,98541.13
2023-03-21T05:58:42.090Z,98528.78
2023-03-21T06:01:09.123Z,98528.28
2023-03-21T06:03:38.897Z,98516.72
2023-03-21T06:06:26.072Z,98523.72
2023-03-21T06:08:55.397Z,98525.84
2023-03-21T06:11:26.649Z,98516.50
2023-03-21T06:14:09.230Z,98518.09
2023-03-21T06:16:36.240Z,98521.91
2023-03-21T06:19:03.019Z,98530.22
2023-03-21T06:21:40.972Z,98537.38
2023-03-21T06:24:09.327Z,98532.84
2023-03-21T06:26:36.294Z,98530.16
2023-03-21T06:29:03.671Z,98540.06
2023-03-21T06:31:31.117Z,98536.09
2023-03-21T06:34:02.365Z,98534.44
2023-03-21T06:36:29.960Z,98529.66
2023-03-21T06:38:56.796Z,98526.47
2023-03-21T06:41:23.671Z,98520.84
2023-03-21T06:44:08.636Z,98513.88
2023-03-21T06:46:44.149Z,98513.53
2023-03-21T06:49:12.125Z,98515.41
2023-03-21T06:51:38.944Z,98522.97
2023-03-21T06:54:10.444Z,98521.88
2023-03-21T06:56:47.236Z,98527.56
2023-03-21T06:59:21.737Z,98526.00
2023-03-21T07:02:01.395Z,98527.88
2023-03-21T07:04:29.524Z,98521.47
2023-03-21T07:06:57.902Z,98530.31
2023-03-21T07:09:28.298Z,98534.88
2023-03-21T07:12:00.414Z,98535.94
2023-03-21T07:14:37.899Z,98530.06
2023-03-21T07:17:04.752Z,98529.50
2023-03-21T07:19:31.576Z,98524.97
2023-03-21T07:22:00.312Z,98520.41
2023-03-21T07:24:28.607Z,98511.56
2023-03-21T07:26:56.374Z,98521.00
2023-03-21T07:29:23.371Z,98515.59
2023-03-21T07:31:50.520Z,98512.94
2023-03-21T07:34:17.923Z,98515.63
2023-03-21T07:36:45.399Z,98520.47
2023-03-21T07:39:12.870Z,98518.31
2023-03-21T07:41:39.810Z,98518.00
2023-03-21T07:44:36.043Z,98523.97
2023-03-21T07:47:04.500Z,98517.53
2023-03-21T07:49:31.987Z,98519.13
2023-03-21T07:52:00.027Z,98521.88
2023-03-21T07:54:28.616Z,98514.84
2023-03-21T07:56:56.928Z,98515.44
2023-03-21T07:59:23.964Z,98517.38
2023-03-21T08:01:51.122Z,98519.25
2023-03-21T08:04:18.085Z,98517.63
2023-03-21T08:06:44.957Z,98515.22
2023-03-21T08:09:11.698Z,98514.19
2023-03-21T08:11:38.541Z,98508.28
2023-03-21T08:14:05.444Z,98519.34
2023-03-21T08:16:32.375Z,98515.88
2023-03-21T08:18:59.147Z,98511.56
2023-03-21T08:21:26.344Z,98505.69
2023-03-21T08:23:53.539Z,98499.53
2023-03-21T08:26:20.399Z,98505.97
2023-03-21T08:28:47.197Z,98495.25
2023-03-21T08:31:14.526Z,98495.78
2023-03-21T08:33:41.309Z,98487.19
2023-03-21T08:36:08.776Z,98489.31
2023-03-21T08:38:36.047Z,98487.72
2023-03-21T08:41:03.415Z,98489.59
2023-03-21T08:43:30.384Z,98488.00
2023-03-21T08:45:57.262Z,98476.19
2023-03-21T08:48:24.191Z,98485.84
2023-03-21T08:50:51.400Z,98489.06
2023-03-21T08:53:18.251Z,98490.38
2023-03-21T08:55:45.357Z,98490.13
2023-03-21T08:58:12.242Z,98476.97
2023-03-21T09:00:39.055Z,98474.56
2023-03-21T09:03:05.819Z,98476.94
2023-03-21T09:05:32.720Z,98468.66
2023-03-21T09:08:01.662Z,98470.78
2023-03-21T09:10:28.610Z,98470.81
2023-03-21T09:12:55.865Z,98469.72
2023-03-21T09:15:25.086Z,98469.72
2023-03-21T09:17:57.206Z,98461.94
2023-03-21T09:20:33.144Z,98468.13
2023-03-21T09:23:01.946Z,98458.72
2023-03-21T09:25:31.461Z,98460.88
2023-03-21T09:28:05.384Z,98449.34
2023-03-21T09:30:33.760Z,98456.84
2023-03-21T09:33:02.081Z,98447.69
2023-03-21T09:35:29.346Z,98433.47
2023-03-21T09:37:59.604Z,98426.75
2023-03-21T09:40:50.231Z,98421.66
2023-03-21T09:43:36.291Z,98421.38
2023-03-21T09:46:10.827Z,98417.91
2023-03-21T09:48:56.097Z,98404.47
2023-03-21T09:51:27.330Z,98401.28
2023-03-21T09:53:57.219Z,98401.78
2023-03-21T09:56:26.140Z,98402.88
2023-03-21T09:58:59.429Z,98413.84
2023-03-21T10:01:34.466Z,98408.19
2023-03-21T10:04:05.548Z,98424.00
2023-03-21T10:06:32.955Z,98416.16
2023-03-21T10:09:14.092Z,98418.56
2023-03-21T10:11:45.073Z,98423.91
2023-03-21T10:14:17.058Z,98411.81
2023-03-21T10:16:45.882Z,98414.44
2023-03-21T10:19:15.466Z,98430.22
2023-03-21T10:22:03.344Z,98429.81
2023-03-21T10:24:33.475Z,98431.38
2023-03-21T10:27:01.729Z,98436.44
2023-03-21T10:29:37.201Z,98425.31
2023-03-21T10:32:04.424Z,98427.84
2023-03-21T10:34:41.587Z,98427.44
2023-03-21T10:37:08.542Z,98442.63
2023-03-21T10:39:38.274Z,98425.44
2023-03-21T10:42:05.301Z,98425.59
2023-03-21T10:44:34.182Z,98420.66
2023-03-21T10:47:06.949Z,98419.75
2023-03-21T10:49:40.663Z,98419.63
2023-03-21T10:52:22.967Z,98406.56
2023-03-21T10:54:50.283Z,98400.34
2023-03-21T10:57:21.942Z,98395.81
2023-03-21T11:00:00.394Z,98391.06
2023-03-21T11:02:37.625Z,98398.06
2023-03-21T11:05:08.212Z,98394.59
2023-03-21T11:07:37.132Z,98392.03
2023-03-21T11:10:19.743Z,98389.84
2023-03-21T11:12:49.922Z,98382.84
2023-03-21T11:15:33.216Z,98383.22
2023-03-21T11:18:01.708Z,98381.53
2023-03-21T11:20:32.245Z,98383.53
2023-03-21T11:22:59.172Z,98382.84
2023-03-21T11:25:51.927Z,98374.19
2023-03-21T11:28:22.780Z,98373.38
2023-03-21T11:30:56.263Z,98365.41
2023-03-21T11:33:30.699Z,98355.28
2023-03-21T11:36:06.012Z,98352.19
2023-03-21T11:38:37.954Z,98365.28
2023-03-21T11:41:05.884Z,98357.94
2023-03-21T11:43:39.293Z,98347.25
2023-03-21T11:46:06.549Z,98351.69
2023-03-21T11:48:43.355Z,98353.00
2023-03-21T11:51:24.937Z,98354.25
2023-03-21T11:54:00.928Z,98350.53
2023-03-21T11:56:29.844Z,98342.84
2023-03-21T11:59:24.645Z,98350.84
2023-03-21T12:02:13.025Z,98356.59
2023-03-21T12:04:42.996Z,98353.28
2023-03-21T12:07:25.045Z,98360.09
2023-03-21T12:10:27.297Z,98351.41
2023-03-21T12:12:59.933Z,98360.56
2023-03-21T12:15:39.391Z,98354.63
2023-03-21T12:18:12.302Z,98354.44
2023-03-21T12:21:15.851Z,98355.06
2023-03-21T12:23:42.622Z,98351.69
2023-03-21T12:26:28.509Z,98354.56
2023-03-21T12:28:58.319Z,98357.03
2023-03-21T12:31:31.187Z,98351.41
2023-03-21T12:34:04.239Z,98333.97
2023-03-21T12:36:48.946Z,98333.38
2023-03-21T12:39:29.388Z,98347.69
2023-03-21T12:42:24.046Z,98339.09
2023-03-21T12:45:02.210Z,98341.38
2023-03-21T12:47:33.017Z,98345.09
2023-03-21T12:50:02.721Z,98336.78
2023-03-21T12:52:33.571Z,98330.44
2023-03-21T12:55:06.720Z,98321.19
2023-03-21T12:57:47.760Z,98327.88
2023-03-21T13:00:25.949Z,98316.84
2023-03-21T13:02:56.538Z,98316.00
2023-03-21T13:05:35.839Z,98311.63
2023-03-21T13:08:09.634Z,98307.19
2023-03-21T13:10:37.304Z,98303.25
2023-03-21T13:13:22.819Z,98297.31
2023-03-21T13:16:08.723Z,98291.28
2023-03-21T13:19:02.068Z,98287.19
2023-03-21T13:21:51.956Z,98284.31
2023-03-21T13:24:48.945Z,98276.34
2023-03-21T13:27:24.831Z,98271.72
2023-03-21T13:29:54.208Z,98263.47
2023-03-21T13:32:28.767Z,98254.88
2023-03-21T13:34:58.131Z,98249.63
2023-03-21T13:37:30.986Z,98243.44
2023-03-21T13:40:10.813Z,98250.69
2023-03-21T13:42:44.511Z,98237.31
2023-03-21T13:45:22.363Z,98242.59
2023-03-21T13:47:55.163Z,98243.50
2023-03-21T13:50:28.563Z,98246.16
2023-03-21T13:53:04.592Z,98246.63
2023-03-21T13:55:40.775Z,98245.88
2023-03-21T13:58:37.110Z,98253.75
2023-03-21T14:01:35.481Z,98253.16
2023-03-21T14:04:18.273Z,98240.91
2023-03-21T14:06:56.082Z,98247.19
2023-03-21T14:09:31.041Z,98245.16
2023-03-21T14:12:03.965Z,98240.25
2023-03-21T14:14:38.734Z,98245.94
2023-03-21T14:17:31.986Z,98245.13
2023-03-21T14:20:20.290Z,98243.03
2023-03-21T14:22:48.435Z,98232.72
2023-03-21T14:25:17.876Z,98232.72
2023-03-21T14:27:54.641Z,98241.91
2023-03-21T14:30:27.042Z,98224.00
2023-03-21T14:32:56.245Z,98221.03
2023-03-21T14:35:23.101Z,98234.19
2023-03-21T14:37:50.328Z,98218.88
2023-03-21T14:40:28.372Z,98217.72
2023-03-21T14:42:55.849Z,98210.00
2023-03-21T14:45:28.070Z,98212.25
2023-03-21T14:48:01.130Z,98230.16
2023-03-21T14:50:34.435Z,98226.00
2023-03-21T14:53:01.370Z,98221.22
2023-03-21T14:55:28.202Z,98223.75
2023-03-21T14:57:55.911Z,98218.94
2023-03-21T15:00:29.297Z,98223.03
2023-03-21T15:02:58.168Z,98218.47
2023-03-21T15:05:33.515Z,98225.91
2023-03-21T15:08:11.388Z,98215.72
2023-03-21T15:10:38.957Z,98217.41
2023-03-21T15:13:40.820Z,98214.41
2023-03-21T15:16:08.366Z,98196.81
2023-03-21T15:18:37.891Z,98205.00
2023-03-21T15:21:10.487Z,98202.13
2023-03-21T15:23:45.344Z,98202.84
2023-03-21T15:26:17.109Z,98194.78
2023-03-21T15:28:51.556Z,98197.63
2023-03-21T15:31:24.112Z,98188.84
2023-03-21T15:33:53.192Z,98181.94
2023-03-21T15:36:26.992Z,98178.06
2023-03-21T15:38:54.806Z,98169.25
2023-03-21T15:41:23.086Z,98169.19
2023-03-21T15:44:02.098Z,98171.94
2023-03-21T15:46:48.350Z,98166.44
2023-03-21T15:49:15.230Z,98167.00
2023-03-21T15:51:46.713Z,98159.28
2023-03-21T15:54:22.229Z,98158.03
2023-03-21T15:56:51.805Z,98150.56
2023-03-21T15:59:19.539Z,98144.03
2023-03-21T16:01:49.932Z,98141.28
2023-03-21T16:04:18.799Z,98135.06
2023-03-21T16:07:04.119Z,98136.44
2023-03-21T16:09:44.546Z,98140.78
2023-03-21T16:12:13.394Z,98131.50
2023-03-21T16:14:40.915Z,98120.25
2023-03-21T16:17:27.929Z,98114.66
2023-03-21T16:19:54.763Z,98123.53
2023-03-21T16:22:22.369Z,98129.13
2023-03-21T16:24:49.454Z,98117.34
2023-03-21T16:27:17.731Z,98117.81
2023-03-21T16:29:44.525Z,98111.56
2023-03-21T16:32:16.071Z,98107.91
2023-03-21T16:34:42.909Z,98102.34
2023-03-21T16:37:11.913Z,98101.66
2023-03-21T16:39:39.012Z,98103.53
2023-03-21T16:42:05.913Z,98089.84
2023-03-21T16:44:33.916Z,98091.06
2023-03-21T16:47:02.314Z,98083.22
2023-03-21T16:49:29.400Z,98081.72
2023-03-21T16:51:57.406Z,98083.50
2023-03-21T16:54:24.748Z,98081.38
2023-03-21T16:56:55.552Z,98078.06
2023-03-21T16:59:22.559Z,98073.50
2023-03-21T17:01:49.916Z,98077.75
2023-03-21T17:04:18.166Z,98069.94
2023-03-21T17:06:47.716Z,98073.59
2023-03-21T17:09:16.038Z,98071.78
2023-03-21T17:11:43.152Z,98069.09
2023-03-21T17:14:11.524Z,98067.22
2023-03-21T17:16:43.103Z,98060.81
2023-03-21T17:19:23.986Z,98063.03
2023-03-21T17:21:51.123Z,98071.84
2023-03-21T17:24:17.958Z,98064.16
2023-03-21T17:26:44.995Z,98063.97
2023-03-21T17:29:15.433Z,98075.19
2023-03-21T17:31:44.019Z,98067.09
2023-03-21T17:34:11.213Z,98066.09
2023-03-21T17:36:40.740Z,98078.06
2023-03-21T17:39:10.998Z,98082.31
2023-03-21T17:41:37.997Z,98072.78
2023-03-21T17:44:04.886Z,98072.22
2023-03-21T17:46:36.061Z,98062.53
2023-03-21T17:49:03.410Z,98065.28
2023-03-21T17:51:30.563Z,98065.19
2023-03-21T17:53:57.558Z,98062.69
2023-03-21T17:56:32.724Z,98052.13
2023-03-21T17:59:02.574Z,98042.78
2023-03-21T18:01:31.993Z,98045.25
2023-03-21T18:03:59.414Z,98041.44
2023-03-21T18:06:26.859Z,98040.81
2023-03-21T18:08:54.601Z,98036.22
2023-03-21T18:11:23.182Z,98038.91
2023-03-21T18:13:50.233Z,98037.50
2023-03-21T18:16:22.408Z,98034.91
2023-03-21T18:18:51.059Z,98031.56
2023-03-21T18:21:20.208Z,98024.63
2023-03-21T18:23:47.847Z,98013.22
2023-03-21T18:26:22.867Z,98011.81
2023-03-21T18:29:43.927Z,98002.69
2023-03-21T18:31:38.282Z,98006.16
2023-03-21T18:34:05.143Z,98004.41
2023-03-21T18:36:32.143Z,98004.25
2023-03-21T18:38:59.012Z,98000.84
2023-03-21T18:41:26.136Z,97999.19
2023-03-21T18:44:02.787Z,98002.19
2023-03-21T18:46:47.452Z,97991.66
2023-03-21T18:50:01.674Z,97999.97
2023-03-21T18:52:02.732Z,97990.81
2023-03-21T18:54:30.345Z,97992.63
2023-03-21T18:57:33.795Z,97997.00
2023-03-21T18:59:44.671Z,97983.16
2023-03-21T19:02:14.094Z,97987.31
2023-03-21T19:04:41.503Z,97988.44
2023-03-21T19:07:08.683Z,97997.28
2023-03-21T19:09:58.241Z,97997.88
2023-03-21T19:12:24.377Z,97981.84
2023-03-21T19:14:51.260Z,97978.28
2023-03-21T19:20:05.878Z,97972.81
2023-03-21T19:22:32.642Z,97984.38
2023-03-21T19:24:59.431Z,97975.16
2023-03-21T19:27:27.163Z,97977.63
2023-03-21T19:30:10.904Z,97975.41
2023-03-21T19:32:40.897Z,97958.22
2023-03-21T19:35:08.100Z,97961.72
2023-03-21T19:37:36.403Z,97952.91
2023-03-21T19:40:05.613Z,97953.66
2023-03-21T19:42:32.622Z,97944.28
2023-03-21T19:45:01.388Z,97948.00
2023-03-21T19:47:28.610Z,97942.13
2023-03-21T19:50:40.753Z,97930.22
2023-03-21T19:52:42.357Z,97926.88
2023-03-21T19:55:10.893Z,97916.94
2023-03-21T19:57:37.690Z,97923.75
2023-03-21T20:00:05.447Z,97918.13
2023-03-21T20:02:35.991Z,97913.84
2023-03-21T20:05:03.331Z,97911.44
2023-03-21T20:07:32.924Z,97905.31
2023-03-21T20:10:00.504Z,97904.38
2023-03-21T20:12:27.693Z,97904.16
2023-03-21T20:15:06.938Z,97899.06
2023-03-21T20:17:39.982Z,97891.69
2023-03-21T20:20:14.195Z,97889.94
2023-03-21T20:23:05.581Z,97890.44
2023-03-21T20:25:29.847Z,97873.63
2023-03-21T20:28:12.836Z,97862.13
2023-03-21T20:30:51.350Z,97861.47
2023-03-21T20:33:29.479Z,97867.88
2023-03-21T20:36:39.366Z,97867.66
2023-03-21T20:39:07.987Z,97852.44
2023-03-21T20:41:35.989Z,97842.13
2023-03-21T20:46:51.104Z,97840.81
2023-03-21T20:49:20.175Z,97840.03
2023-03-21T20:54:35.603Z,97831.41
2023-03-21T20:57:02.726Z,97826.09
2023-03-21T20:59:30.072Z,97819.34
2023-03-21T21:01:57.764Z,97817.16
2023-03-21T21:04:44.867Z,97807.69
2023-03-21T21:07:17.231Z,97805.75
2023-03-21T21:09:45.260Z,97798.50
2023-03-21T21:12:14.262Z,97794.56
2023-03-21T21:14:42.059Z,97791.16
2023-03-21T21:17:30.729Z,97784.16
2023-03-21T21:19:57.527Z,97784.16
2023-03-21T21:22:24.334Z,97790.00
2023-03-21T21:24:51.405Z,97780.16
2023-03-21T21:27:18.156Z,97779.88
2023-03-21T21:29:47.825Z,97780.16
2023-03-21T21:32:16.847Z,97774.78
2023-03-21T21:34:43.848Z,97769.72
2023-03-21T21:37:10.794Z,97774.59
2023-03-21T21:39:38.682Z,97764.94
2023-03-21T21:42:05.844Z,97768.41
2023-03-21T21:44:32.695Z,97769.56
2023-03-21T21:46:59.739Z,97765.59
2023-03-21T21:49:28.272Z,97756.59
2023-03-21T21:51:56.385Z,97752.25
2023-03-21T21:54:23.258Z,97750.41
2023-03-21T21:56:54.147Z,97747.97
2023-03-21T21:59:22.297Z,97728.41
2023-03-21T22:01:51.516Z,97736.75
2023-03-21T22:04:28.039Z,97737.63
2023-03-21T22:06:56.093Z,97741.09
2023-03-21T22:09:23.157Z,97743.50
2023-03-21T22:11:50.085Z,97740.03
2023-03-21T22:14:16.972Z,97733.28
2023-03-21T22:16:44.123Z,97724.94
2023-03-21T22:19:10.946Z,97707.63
2023-03-21T22:21:37.764Z,97711.88
2023-03-21T22:24:04.944Z,97696.41
2023-03-21T22:26:31.914Z,97687.00
2023-03-21T22:28:59.970Z,97669.19
2023-03-21T22:31:27.107Z,97675.34
2023-03-21T22:33:54.110Z,97666.78
2023-03-21T22:36:21.183Z,97650.94
2023-03-21T22:38:47.989Z,97642.41
2023-03-21T22:41:14.918Z,97637.84
2023-03-21T22:43:41.711Z,97632.28
2023-03-21T22:46:08.570Z,97635.84
2023-03-21T22:48:35.468Z,97635.28
2023-03-21T22:51:02.327Z,97627.00
2023-03-21T22:53:29.564Z,97621.34
2023-03-21T22:55:56.611Z,97607.16
2023-03-21T22:58:23.760Z,97602.38
2023-03-21T23:00:50.695Z,97587.66
2023-03-21T23:03:17.668Z,97580.50
2023-03-21T23:05:45.342Z,97591.78
2023-03-21T23:08:12.973Z,97570.28
2023-03-21T23:10:43.433Z,97571.22
2023-03-21T23:13:10.855Z,97564.97
2023-03-21T23:15:40.749Z,97557.53
2023-03-21T23:18:07.871Z,97551.28
2023-03-21T23:20:34.823Z,97547.97
2023-03-21T23:23:02.079Z,97541.41
2023-03-21T23:25:30.526Z,97537.09
2023-03-21T23:27:57.560Z,97523.97
2023-03-21T23:30:24.487Z,97526.38
2023-03-21T23:32:51.324Z,97516.19
2023-03-21T23:35:18.731Z,97512.03
2023-03-21T23:37:54.379Z,97500.31
2023-03-21T23:40:21.406Z,97499.31
2023-03-21T23:42:48.207Z,97482.63
2023-03-21T23:45:15.633Z,97479.16
2023-03-21T23:47:42.509Z,97459.59
2023-03-21T23:50:10.310Z,97455.66
2023-03-21T23:52:37.695Z,97449.75
2023-03-21T23:55:05.840Z,97446.09
2023-03-21T23:57:32.708Z,97442.84
2023-03-21T23:59:59.809Z,97424.66
